sensor_id;sensor_type;location;lat;lon;timestamp;pressure;altitude;pressure_sealevel;temperature;humidity
73558;BME280;61829;53.286;10.434;2023-01-15T00:01:34;99237.22;;;6.83;93.92
73558;BME280;61829;53.286;10.434;2023-01-15T00:04:03;99231.81;;;6.76;94.12
73558;BME280;61829;53.286;10.434;2023-01-15T00:06:30;99233.44;;;6.70;94.16
73558;BME280;61829;53.286;10.434;2023-01-15T00:08:57;99232.38;;;6.65;95.22
73558;BME280;61829;53.286;10.434;2023-01-15T00:11:23;99232.78;;;6.62;95.36
73558;BME280;61829;53.286;10.434;2023-01-15T00:13:50;99239.56;;;6.58;95.24
73558;BME280;61829;53.286;10.434;2023-01-15T00:16:19;99239.97;;;6.55;95.69
73558;BME280;61829;53.286;10.434;2023-01-15T00:18:54;99241.59;;;6.49;96.22
73558;BME280;61829;53.286;10.434;2023-01-15T00:21:21;99236.63;;;6.46;96.33
73558;BME280;61829;53.286;10.434;2023-01-15T00:23:48;99239.72;;;6.43;96.73
73558;BME280;61829;53.286;10.434;2023-01-15T00:26:33;99255.31;;;6.39;97.35
73558;BME280;61829;53.286;10.434;2023-01-15T00:29:19;99261.88;;;6.37;97.55
73558;BME280;61829;53.286;10.434;2023-01-15T00:34:19;99257.31;;;6.30;97.66
73558;BME280;61829;53.286;10.434;2023-01-15T00:36:45;99255.69;;;6.29;97.32
73558;BME280;61829;53.286;10.434;2023-01-15T00:39:11;99254.63;;;6.30;97.96
73558;BME280;61829;53.286;10.434;2023-01-15T00:41:38;99258.75;;;6.26;97.94
73558;BME280;61829;53.286;10.434;2023-01-15T00:44:04;99263.88;;;6.28;97.61
73558;BME280;61829;53.286;10.434;2023-01-15T00:46:30;99249.69;;;6.27;97.58
73558;BME280;61829;53.286;10.434;2023-01-15T00:48:56;99258.94;;;6.25;97.18
73558;BME280;61829;53.286;10.434;2023-01-15T00:51:23;99241.03;;;6.25;96.93
73558;BME280;61829;53.286;10.434;2023-01-15T00:53:49;99237.09;;;6.21;97.29
73558;BME280;61829;53.286;10.434;2023-01-15T00:56:15;99246.34;;;6.19;96.56
73558;BME280;61829;53.286;10.434;2023-01-15T00:58:41;99244.69;;;6.18;96.42
73558;BME280;61829;53.286;10.434;2023-01-15T01:01:07;99252.25;;;6.14;95.81
73558;BME280;61829;53.286;10.434;2023-01-15T01:03:34;99257.00;;;6.12;96.59
73558;BME280;61829;53.286;10.434;2023-01-15T01:06:30;99249.97;;;6.11;95.70
73558;BME280;61829;53.286;10.434;2023-01-15T01:08:57;99251.00;;;6.10;95.85
73558;BME280;61829;53.286;10.434;2023-01-15T01:11:24;99248.50;;;6.08;95.69
73558;BME280;61829;53.286;10.434;2023-01-15T01:13:53;99254.25;;;6.05;95.77
73558;BME280;61829;53.286;10.434;2023-01-15T01:16:26;99255.28;;;6.04;95.93
73558;BME280;61829;53.286;10.434;2023-01-15T01:18:56;99269.47;;;6.05;96.06
73558;BME280;61829;53.286;10.434;2023-01-15T01:21:23;99268.47;;;6.06;95.80
73558;BME280;61829;53.286;10.434;2023-01-15T01:23:50;99269.69;;;6.03;95.61
73558;BME280;61829;53.286;10.434;2023-01-15T01:26:16;99265.56;;;6.01;96.27
73558;BME280;61829;53.286;10.434;2023-01-15T01:28:44;99263.06;;;5.99;96.17
73558;BME280;61829;53.286;10.434;2023-01-15T01:31:12;99278.91;;;6.01;96.07
73558;BME280;61829;53.286;10.434;2023-01-15T01:33:38;99263.69;;;6.01;96.39
73558;BME280;61829;53.286;10.434;2023-01-15T01:36:04;99268.22;;;6.01;96.50
73558;BME280;61829;53.286;10.434;2023-01-15T01:38:32;99267.59;;;5.99;96.60
73558;BME280;61829;53.286;10.434;2023-01-15T01:40:58;99272.75;;;6.00;96.20
73558;BME280;61829;53.286;10.434;2023-01-15T01:43:27;99265.94;;;5.98;96.99
73558;BME280;61829;53.286;10.434;2023-01-15T01:45:53;99269.63;;;5.97;96.98
73558;BME280;61829;53.286;10.434;2023-01-15T01:48:23;99265.94;;;5.98;95.99
73558;BME280;61829;53.286;10.434;2023-01-15T01:50:53;99265.13;;;5.97;96.41
73558;BME280;61829;53.286;10.434;2023-01-15T01:53:24;99261.59;;;5.97;96.70
73558;BME280;61829;53.286;10.434;2023-01-15T01:55:51;99262.44;;;5.97;96.84
73558;BME280;61829;53.286;10.434;2023-01-15T01:58:19;99265.13;;;5.97;96.49
73558;BME280;61829;53.286;10.434;2023-01-15T02:04:48;99259.31;;;5.94;96.74
73558;BME280;61829;53.286;10.434;2023-01-15T02:07:15;99262.63;;;5.96;96.96
73558;BME280;61829;53.286;10.434;2023-01-15T02:09:41;99277.03;;;5.95;96.89
73558;BME280;61829;53.286;10.434;2023-01-15T02:12:16;99271.69;;;5.95;97.10
73558;BME280;61829;53.286;10.434;2023-01-15T02:17:52;99252.28;;;5.93;95.65
73558;BME280;61829;53.286;10.434;2023-01-15T02:20:33;99268.34;;;5.93;95.68
73558;BME280;61829;53.286;10.434;2023-01-15T02:28:21;99246.94;;;5.93;96.13
73558;BME280;61829;53.286;10.434;2023-01-15T02:30:53;99256.81;;;5.92;95.65
73558;BME280;61829;53.286;10.434;2023-01-15T02:33:29;99256.00;;;5.92;95.79
73558;BME280;61829;53.286;10.434;2023-01-15T02:35:58;99265.84;;;5.91;95.69
73558;BME280;61829;53.286;10.434;2023-01-15T02:38:35;99263.16;;;5.91;95.51
73558;BME280;61829;53.286;10.434;2023-01-15T02:41:04;99269.53;;;5.90;95.35
73558;BME280;61829;53.286;10.434;2023-01-15T02:43:34;99281.06;;;5.91;95.64
73558;BME280;61829;53.286;10.434;2023-01-15T02:46:04;99280.22;;;5.90;95.23
73558;BME280;61829;53.286;10.434;2023-01-15T02:48:32;99284.94;;;5.88;94.74
73558;BME280;61829;53.286;10.434;2023-01-15T02:51:14;99292.78;;;5.90;94.51
73558;BME280;61829;53.286;10.434;2023-01-15T02:53:43;99297.31;;;5.89;93.83
73558;BME280;61829;53.286;10.434;2023-01-15T02:56:18;99277.94;;;5.87;93.81
73558;BME280;61829;53.286;10.434;2023-01-15T02:58:47;99272.78;;;5.85;94.77
73558;BME280;61829;53.286;10.434;2023-01-15T03:01:42;99285.16;;;5.87;93.38
73558;BME280;61829;53.286;10.434;2023-01-15T03:04:14;99282.66;;;5.85;93.86
73558;BME280;61829;53.286;10.434;2023-01-15T03:06:45;99292.53;;;5.84;93.60
73558;BME280;61829;53.286;10.434;2023-01-15T03:09:16;99273.16;;;5.82;93.37
73558;BME280;61829;53.286;10.434;2023-01-15T03:11:47;99274.19;;;5.81;94.12
73558;BME280;61829;53.286;10.434;2023-01-15T03:14:19;99270.50;;;5.82;93.75
73558;BME280;61829;53.286;10.434;2023-01-15T03:16:51;99267.66;;;5.84;93.50
73558;BME280;61829;53.286;10.434;2023-01-15T03:19:33;99296.22;;;5.83;93.92
73558;BME280;61829;53.286;10.434;2023-01-15T03:24:40;99281.41;;;5.81;94.00
73558;BME280;61829;53.286;10.434;2023-01-15T03:27:06;99283.25;;;5.80;93.80
73558;BME280;61829;53.286;10.434;2023-01-15T03:29:37;99262.88;;;5.79;94.49
73558;BME280;61829;53.286;10.434;2023-01-15T03:32:04;99261.22;;;5.78;94.02
73558;BME280;61829;53.286;10.434;2023-01-15T03:34:37;99264.72;;;5.79;93.87
73558;BME280;61829;53.286;10.434;2023-01-15T03:37:05;99269.03;;;5.80;94.04
73558;BME280;61829;53.286;10.434;2023-01-15T03:39:31;99274.38;;;5.80;93.79
73558;BME280;61829;53.286;10.434;2023-01-15T03:47:31;99268.41;;;5.78;94.00
73558;BME280;61829;53.286;10.434;2023-01-15T04:01:11;99257.25;;;5.74;94.21
73558;BME280;61829;53.286;10.434;2023-01-15T04:03:38;99261.63;;;5.75;94.01
73558;BME280;61829;53.286;10.434;2023-01-15T04:06:05;99262.19;;;5.71;94.25
73558;BME280;61829;53.286;10.434;2023-01-15T04:08:36;99274.06;;;5.68;93.95
73558;BME280;61829;53.286;10.434;2023-01-15T04:11:04;99265.63;;;5.65;94.22
73558;BME280;61829;53.286;10.434;2023-01-15T04:13:30;99246.91;;;5.65;94.86
73558;BME280;61829;53.286;10.434;2023-01-15T04:15:57;99251.63;;;5.62;94.25
73558;BME280;61829;53.286;10.434;2023-01-15T04:18:23;99243.16;;;5.59;94.99
73558;BME280;61829;53.286;10.434;2023-01-15T04:20:49;99258.56;;;5.57;94.62
73558;BME280;61829;53.286;10.434;2023-01-15T04:23:15;99246.41;;;5.54;94.55
73558;BME280;61829;53.286;10.434;2023-01-15T04:25:41;99253.81;;;5.52;94.74
73558;BME280;61829;53.286;10.434;2023-01-15T04:28:08;99243.28;;;5.51;94.30
73558;BME280;61829;53.286;10.434;2023-01-15T04:30:35;99254.81;;;5.51;94.87
73558;BME280;61829;53.286;10.434;2023-01-15T04:33:03;99254.38;;;5.48;94.92
73558;BME280;61829;53.286;10.434;2023-01-15T04:35:29;99243.25;;;5.44;94.64
73558;BME280;61829;53.286;10.434;2023-01-15T04:37:56;99237.25;;;5.42;94.71
73558;BME280;61829;53.286;10.434;2023-01-15T04:40:23;99233.13;;;5.39;95.08
73558;BME280;61829;53.286;10.434;2023-01-15T04:43:10;99247.66;;;5.37;94.59
73558;BME280;61829;53.286;10.434;2023-01-15T04:45:56;99239.00;;;5.35;94.41
73558;BME280;61829;53.286;10.434;2023-01-15T04:48:22;99237.75;;;5.31;95.46
73558;BME280;61829;53.286;10.434;2023-01-15T04:50:48;99246.78;;;5.30;94.61
73558;BME280;61829;53.286;10.434;2023-01-15T04:53:14;99256.00;;;5.27;95.29
73558;BME280;61829;53.286;10.434;2023-01-15T04:55:40;99256.19;;;5.26;94.68
73558;BME280;61829;53.286;10.434;2023-01-15T04:58:06;99247.34;;;5.25;95.09
73558;BME280;61829;53.286;10.434;2023-01-15T05:00:33;99239.72;;;5.22;94.92
73558;BME280;61829;53.286;10.434;2023-01-15T05:02:59;99248.75;;;5.21;94.79
73558;BME280;61829;53.286;10.434;2023-01-15T05:05:25;99242.56;;;5.21;94.58
73558;BME280;61829;53.286;10.434;2023-01-15T05:07:51;99234.13;;;5.17;94.67
73558;BME280;61829;53.286;10.434;2023-01-15T05:10:17;99227.78;;;5.18;95.09
73558;BME280;61829;53.286;10.434;2023-01-15T05:12:43;99221.59;;;5.17;95.05
73558;BME280;61829;53.286;10.434;2023-01-15T05:15:09;99227.78;;;5.18;95.66
73558;BME280;61829;53.286;10.434;2023-01-15T05:17:35;99218.09;;;5.17;95.61
73558;BME280;61829;53.286;10.434;2023-01-15T05:20:03;99216.25;;;5.17;95.42
73558;BME280;61829;53.286;10.434;2023-01-15T05:22:29;99206.59;;;5.16;95.86
73558;BME280;61829;53.286;10.434;2023-01-15T05:24:55;99210.28;;;5.15;95.00
73558;BME280;61829;53.286;10.434;2023-01-15T05:27:21;99210.47;;;5.14;95.33
73558;BME280;61829;53.286;10.434;2023-01-15T05:29:47;99219.69;;;5.11;95.27
73558;BME280;61829;53.286;10.434;2023-01-15T05:32:13;99226.88;;;5.11;95.49
73558;BME280;61829;53.286;10.434;2023-01-15T05:34:40;99221.34;;;5.12;95.89
73558;BME280;61829;53.286;10.434;2023-01-15T05:37:05;99209.22;;;5.10;95.53
73558;BME280;61829;53.286;10.434;2023-01-15T05:39:32;99218.22;;;5.09;95.88
73558;BME280;61829;53.286;10.434;2023-01-15T05:41:57;99214.94;;;5.07;95.54
73558;BME280;61829;53.286;10.434;2023-01-15T05:44:26;99220.25;;;5.07;94.03
73558;BME280;61829;53.286;10.434;2023-01-15T05:46:54;99212.25;;;5.07;94.81
73558;BME280;61829;53.286;10.434;2023-01-15T05:49:23;99217.78;;;5.05;94.80
73558;BME280;61829;53.286;10.434;2023-01-15T05:51:50;99217.59;;;5.07;94.62
73558;BME280;61829;53.286;10.434;2023-01-15T05:54:22;99228.63;;;5.04;93.75
73558;BME280;61829;53.286;10.434;2023-01-15T05:56:48;99217.34;;;5.02;94.34
73558;BME280;61829;53.286;10.434;2023-01-15T05:59:16;99223.03;;;4.99;93.99
73558;BME280;61829;53.286;10.434;2023-01-15T06:01:42;99217.88;;;4.97;94.06
73558;BME280;61829;53.286;10.434;2023-01-15T06:04:10;99220.56;;;4.97;94.09
73558;BME280;61829;53.286;10.434;2023-01-15T06:06:39;99214.41;;;4.97;93.42
73558;BME280;61829;53.286;10.434;2023-01-15T06:09:05;99227.09;;;4.94;93.66
73558;BME280;61829;53.286;10.434;2023-01-15T06:11:31;99216.16;;;4.89;93.61
73558;BME280;61829;53.286;10.434;2023-01-15T06:13:58;99218.38;;;4.86;94.00
73558;BME280;61829;53.286;10.434;2023-01-15T06:16:25;99225.94;;;4.82;94.65
73558;BME280;61829;53.286;10.434;2023-01-15T06:18:51;99220.97;;;4.79;93.81
73558;BME280;61829;53.286;10.434;2023-01-15T06:21:17;99239.66;;;4.79;93.92
73558;BME280;61829;53.286;10.434;2023-01-15T06:23:43;99232.03;;;4.76;93.45
73558;BME280;61829;53.286;10.434;2023-01-15T06:26:16;99234.03;;;4.74;94.06
73558;BME280;61829;53.286;10.434;2023-01-15T06:28:44;99231.75;;;4.71;93.57
73558;BME280;61829;53.286;10.434;2023-01-15T06:31:12;99247.31;;;4.67;94.29
73558;BME280;61829;53.286;10.434;2023-01-15T06:33:38;99248.31;;;4.66;94.33
73558;BME280;61829;53.286;10.434;2023-01-15T06:36:16;99239.47;;;4.66;94.33
73558;BME280;61829;53.286;10.434;2023-01-15T06:38:43;99242.53;;;4.63;94.41
73558;BME280;61829;53.286;10.434;2023-01-15T06:41:15;99241.69;;;4.62;94.10
73558;BME280;61829;53.286;10.434;2023-01-15T06:44:00;99237.34;;;4.61;93.86
73558;BME280;61829;53.286;10.434;2023-01-15T06:46:49;99246.59;;;4.59;94.40
73558;BME280;61829;53.286;10.434;2023-01-15T06:49:36;99251.91;;;4.59;93.73
73558;BME280;61829;53.286;10.434;2023-01-15T06:52:03;99247.78;;;4.56;93.98
73558;BME280;61829;53.286;10.434;2023-01-15T06:54:29;99242.63;;;4.55;94.58
73558;BME280;61829;53.286;10.434;2023-01-15T06:56:55;99251.66;;;4.54;93.95
73558;BME280;61829;53.286;10.434;2023-01-15T06:59:21;99234.34;;;4.49;93.92
73558;BME280;61829;53.286;10.434;2023-01-15T07:01:47;99246.84;;;4.49;95.11
73558;BME280;61829;53.286;10.434;2023-01-15T07:04:14;99244.38;;;4.47;94.52
73558;BME280;61829;53.286;10.434;2023-01-15T07:06:40;99238.19;;;4.47;94.46
73558;BME280;61829;53.286;10.434;2023-01-15T07:09:06;99240.41;;;4.43;94.68
73558;BME280;61829;53.286;10.434;2023-01-15T07:11:32;99246.78;;;4.42;94.79
73558;BME280;61829;53.286;10.434;2023-01-15T07:13:59;99234.25;;;4.43;94.75
73558;BME280;61829;53.286;10.434;2023-01-15T07:16:34;99231.59;;;4.43;93.85
73558;BME280;61829;53.286;10.434;2023-01-15T07:19:02;99237.09;;;4.41;94.26
73558;BME280;61829;53.286;10.434;2023-01-15T07:21:29;99239.13;;;4.39;94.26
73558;BME280;61829;53.286;10.434;2023-01-15T07:23:59;99229.94;;;4.42;93.99
73558;BME280;61829;53.286;10.434;2023-01-15T07:26:26;99232.78;;;4.40;93.93
73558;BME280;61829;53.286;10.434;2023-01-15T07:28:53;99236.28;;;4.41;94.89
73558;BME280;61829;53.286;10.434;2023-01-15T07:31:19;99239.97;;;4.40;93.83
73558;BME280;61829;53.286;10.434;2023-01-15T07:33:48;99239.97;;;4.40;93.96
73558;BME280;61829;53.286;10.434;2023-01-15T07:36:14;99236.66;;;4.38;93.95
73558;BME280;61829;53.286;10.434;2023-01-15T07:38:41;99237.47;;;4.38;93.53
73558;BME280;61829;53.286;10.434;2023-01-15T07:41:06;99242.81;;;4.38;93.83
73558;BME280;61829;53.286;10.434;2023-01-15T07:43:51;99242.81;;;4.38;93.45
73558;BME280;61829;53.286;10.434;2023-01-15T07:46:36;99245.28;;;4.40;92.75
73558;BME280;61829;53.286;10.434;2023-01-15T07:49:20;99246.13;;;4.40;93.35
73558;BME280;61829;53.286;10.434;2023-01-15T07:52:05;99249.16;;;4.37;92.98
73558;BME280;61829;53.286;10.434;2023-01-15T07:54:34;99247.13;;;4.39;92.48
73558;BME280;61829;53.286;10.434;2023-01-15T07:57:00;99253.28;;;4.40;92.28
73558;BME280;61829;53.286;10.434;2023-01-15T07:59:26;99243.44;;;4.40;92.18
73558;BME280;61829;53.286;10.434;2023-01-15T08:01:52;99255.13;;;4.39;92.43
73558;BME280;61829;53.286;10.434;2023-01-15T08:04:23;99251.66;;;4.39;91.70
73558;BME280;61829;53.286;10.434;2023-01-15T08:06:49;99248.78;;;4.40;91.68
73558;BME280;61829;53.286;10.434;2023-01-15T08:09:15;99250.06;;;4.44;91.21
73558;BME280;61829;53.286;10.434;2023-01-15T08:11:41;99256.03;;;4.46;91.05
73558;BME280;61829;53.286;10.434;2023-01-15T08:14:26;99249.72;;;4.47;91.68
73558;BME280;61829;53.286;10.434;2023-01-15T08:17:11;99247.50;;;4.51;90.99
73558;BME280;61829;53.286;10.434;2023-01-15T08:19:37;99249.16;;;4.52;91.03
73558;BME280;61829;53.286;10.434;2023-01-15T08:22:03;99247.56;;;4.58;90.86
73558;BME280;61829;53.286;10.434;2023-01-15T08:24:29;99246.75;;;4.57;90.39
73558;BME280;61829;53.286;10.434;2023-01-15T08:26:55;99249.25;;;4.59;90.25
73558;BME280;61829;53.286;10.434;2023-01-15T08:29:22;99253.84;;;4.65;89.68
73558;BME280;61829;53.286;10.434;2023-01-15T08:31:48;99259.47;;;4.70;90.24
73558;BME280;61829;53.286;10.434;2023-01-15T08:34:14;99257.41;;;4.72;89.75
73558;BME280;61829;53.286;10.434;2023-01-15T08:36:40;99253.16;;;4.78;89.66
73558;BME280;61829;53.286;10.434;2023-01-15T08:39:06;99261.28;;;4.84;89.41
73558;BME280;61829;53.286;10.434;2023-01-15T08:41:32;99263.19;;;4.90;88.64
73558;BME280;61829;53.286;10.434;2023-01-15T08:43:58;99266.13;;;4.95;88.50
73558;BME280;61829;53.286;10.434;2023-01-15T08:46:24;99267.84;;;5.03;88.32
73558;BME280;61829;53.286;10.434;2023-01-15T08:48:51;99265.66;;;5.07;88.46
73558;BME280;61829;53.286;10.434;2023-01-15T08:51:18;99258.34;;;5.15;88.06
73558;BME280;61829;53.286;10.434;2023-01-15T08:53:44;99245.06;;;5.22;87.07
73558;BME280;61829;53.286;10.434;2023-01-15T08:56:15;99253.94;;;5.29;86.92
73558;BME280;61829;53.286;10.434;2023-01-15T08:58:41;99250.34;;;5.37;86.77
73558;BME280;61829;53.286;10.434;2023-01-15T09:01:09;99250.03;;;5.47;86.83
73558;BME280;61829;53.286;10.434;2023-01-15T09:03:37;99244.19;;;5.58;86.21
73558;BME280;61829;53.286;10.434;2023-01-15T09:06:03;99248.94;;;5.62;85.41
73558;BME280;61829;53.286;10.434;2023-01-15T09:08:30;99242.38;;;5.65;85.54
73558;BME280;61829;53.286;10.434;2023-01-15T09:10:57;99235.44;;;5.71;84.77
73558;BME280;61829;53.286;10.434;2023-01-15T09:13:28;99245.97;;;5.72;84.31
73558;BME280;61829;53.286;10.434;2023-01-15T09:15:58;99238.16;;;5.77;84.42
73558;BME280;61829;53.286;10.434;2023-01-15T09:18:24;99230.16;;;5.77;83.83
73558;BME280;61829;53.286;10.434;2023-01-15T09:20:51;99242.69;;;5.77;82.96
73558;BME280;61829;53.286;10.434;2023-01-15T09:23:17;99248.69;;;5.79;82.19
73558;BME280;61829;53.286;10.434;2023-01-15T09:25:58;99247.22;;;5.76;81.01
73558;BME280;61829;53.286;10.434;2023-01-15T09:28:24;99233.22;;;5.74;80.64
73558;BME280;61829;53.286;10.434;2023-01-15T09:30:50;99242.09;;;5.75;79.19
73558;BME280;61829;53.286;10.434;2023-01-15T09:33:17;99240.84;;;5.77;78.28
73558;BME280;61829;53.286;10.434;2023-01-15T09:35:43;99239.19;;;5.76;75.57
73558;BME280;61829;53.286;10.434;2023-01-15T09:38:12;99262.81;;;5.73;75.14
73558;BME280;61829;53.286;10.434;2023-01-15T09:40:54;99253.34;;;5.70;74.38
73558;BME280;61829;53.286;10.434;2023-01-15T09:46:15;99252.38;;;5.56;75.07
73558;BME280;61829;53.286;10.434;2023-01-15T09:56:54;99253.53;;;5.47;76.51
73558;BME280;61829;53.286;10.434;2023-01-15T09:59:44;99250.16;;;5.38;76.45
73558;BME280;61829;53.286;10.434;2023-01-15T10:05:27;99250.47;;;5.29;76.13
73558;BME280;61829;53.286;10.434;2023-01-15T10:07:58;99252.03;;;5.23;76.21
73558;BME280;61829;53.286;10.434;2023-01-15T10:10:32;99257.97;;;5.18;77.55
73558;BME280;61829;53.286;10.434;2023-01-15T10:13:07;99250.91;;;5.11;77.34
73558;BME280;61829;53.286;10.434;2023-01-15T10:15:44;99258.63;;;5.06;77.72
73558;BME280;61829;53.286;10.434;2023-01-15T10:18:19;99264.72;;;5.00;78.14
73558;BME280;61829;53.286;10.434;2023-01-15T10:23:50;99279.28;;;4.97;79.32
73558;BME280;61829;53.286;10.434;2023-01-15T10:26:56;99277.25;;;4.99;80.06
73558;BME280;61829;53.286;10.434;2023-01-15T10:37:50;99265.88;;;5.12;79.95
73558;BME280;61829;53.286;10.434;2023-01-15T10:46:30;99267.13;;;5.31;80.50
73558;BME280;61829;53.286;10.434;2023-01-15T10:49:01;99253.78;;;5.31;81.64
73558;BME280;61829;53.286;10.434;2023-01-15T10:51:49;99250.56;;;5.35;80.84
73558;BME280;61829;53.286;10.434;2023-01-15T10:54:35;99244.19;;;5.36;79.98
73558;BME280;61829;53.286;10.434;2023-01-15T10:59:56;99237.00;;;5.37;78.87
73558;BME280;61829;53.286;10.434;2023-01-15T11:02:31;99241.91;;;5.33;78.99
73558;BME280;61829;53.286;10.434;2023-01-15T11:05:00;99254.81;;;5.30;79.76
73558;BME280;61829;53.286;10.434;2023-01-15T11:07:39;99242.91;;;5.32;80.08
73558;BME280;61829;53.286;10.434;2023-01-15T11:10:09;99239.47;;;5.38;80.59
73558;BME280;61829;53.286;10.434;2023-01-15T11:12:38;99224.16;;;5.47;79.61
73558;BME280;61829;53.286;10.434;2023-01-15T11:15:25;99228.16;;;5.58;80.02
73558;BME280;61829;53.286;10.434;2023-01-15T11:18:25;99223.28;;;5.68;78.84
73558;BME280;61829;53.286;10.434;2023-01-15T11:21:14;99222.09;;;5.71;77.65
73558;BME280;61829;53.286;10.434;2023-01-15T11:23:41;99236.03;;;5.66;77.31
73558;BME280;61829;53.286;10.434;2023-01-15T11:26:08;99217.31;;;5.66;76.35
73558;BME280;61829;53.286;10.434;2023-01-15T11:28:36;99219.97;;;5.66;75.61
73558;BME280;61829;53.286;10.434;2023-01-15T11:31:06;99211.41;;;5.71;75.04
73558;BME280;61829;53.286;10.434;2023-01-15T11:33:33;99208.16;;;5.75;74.73
73558;BME280;61829;53.286;10.434;2023-01-15T11:36:02;99208.41;;;5.80;75.19
73558;BME280;61829;53.286;10.434;2023-01-15T11:38:30;99190.94;;;5.84;75.07
73558;BME280;61829;53.286;10.434;2023-01-15T11:41:27;99209.84;;;5.83;74.06
73558;BME280;61829;53.286;10.434;2023-01-15T11:44:18;99196.94;;;5.87;74.40
73558;BME280;61829;53.286;10.434;2023-01-15T11:47:16;99193.47;;;5.93;74.51
73558;BME280;61829;53.286;10.434;2023-01-15T11:50:00;99187.38;;;5.99;73.83
73558;BME280;61829;53.286;10.434;2023-01-15T11:52:50;99173.44;;;6.03;73.42
73558;BME280;61829;53.286;10.434;2023-01-15T11:55:20;99187.41;;;6.05;73.35
73558;BME280;61829;53.286;10.434;2023-01-15T11:57:48;99168.91;;;6.04;72.82
73558;BME280;61829;53.286;10.434;2023-01-15T12:03:29;99169.47;;;5.99;72.06
73558;BME280;61829;53.286;10.434;2023-01-15T12:06:05;99151.78;;;5.98;71.87
73558;BME280;61829;53.286;10.434;2023-01-15T12:09:21;99163.75;;;6.02;71.53
73558;BME280;61829;53.286;10.434;2023-01-15T12:22:59;99138.56;;;6.25;71.72
73558;BME280;61829;53.286;10.434;2023-01-15T12:28:21;99140.66;;;6.29;69.89
73558;BME280;61829;53.286;10.434;2023-01-15T12:31:10;99147.88;;;6.36;69.60
73558;BME280;61829;53.286;10.434;2023-01-15T12:36:23;99155.91;;;6.42;69.30
73558;BME280;61829;53.286;10.434;2023-01-15T12:39:00;99147.28;;;6.40;69.36
73558;BME280;61829;53.286;10.434;2023-01-15T12:41:33;99152.25;;;6.43;68.87
73558;BME280;61829;53.286;10.434;2023-01-15T12:47:49;99146.88;;;6.43;68.17
73558;BME280;61829;53.286;10.434;2023-01-15T12:58:50;99152.03;;;6.45;66.79
73558;BME280;61829;53.286;10.434;2023-01-15T13:01:30;99153.69;;;6.46;66.10
73558;BME280;61829;53.286;10.434;2023-01-15T13:06:59;99158.81;;;6.41;66.60
73558;BME280;61829;53.286;10.434;2023-01-15T13:21:17;99145.84;;;6.44;66.03
73558;BME280;61829;53.286;10.434;2023-01-15T13:24:12;99142.34;;;6.44;65.16
73558;BME280;61829;53.286;10.434;2023-01-15T13:32:21;99132.69;;;6.43;65.37
73558;BME280;61829;53.286;10.434;2023-01-15T13:34:55;99151.00;;;6.46;65.97
73558;BME280;61829;53.286;10.434;2023-01-15T13:37:33;99151.00;;;6.46;64.68
73558;BME280;61829;53.286;10.434;2023-01-15T13:43:06;99132.31;;;6.52;65.26
73558;BME280;61829;53.286;10.434;2023-01-15T13:48:18;99127.53;;;6.48;65.12
73558;BME280;61829;53.286;10.434;2023-01-15T13:50:59;99128.56;;;6.47;65.27
73558;BME280;61829;53.286;10.434;2023-01-15T13:53:37;99137.19;;;6.42;66.49
73558;BME280;61829;53.286;10.434;2023-01-15T13:56:06;99132.47;;;6.38;67.35
73558;BME280;61829;53.286;10.434;2023-01-15T13:58:39;99141.47;;;6.30;68.24
73558;BME280;61829;53.286;10.434;2023-01-15T14:01:22;99158.28;;;6.17;71.21
73558;BME280;61829;53.286;10.434;2023-01-15T14:06:41;99177.53;;;5.78;77.88
73558;BME280;61829;53.286;10.434;2023-01-15T14:34:33;99148.75;;;5.52;75.66
73558;BME280;61829;53.286;10.434;2023-01-15T14:37:06;99147.16;;;5.57;73.26
73558;BME280;61829;53.286;10.434;2023-01-15T14:39:49;99139.38;;;5.62;72.94
73558;BME280;61829;53.286;10.434;2023-01-15T14:46:33;99134.31;;;5.74;72.33
73558;BME280;61829;53.286;10.434;2023-01-15T14:49:01;99131.25;;;5.77;71.74
73558;BME280;61829;53.286;10.434;2023-01-15T14:51:30;99147.13;;;5.79;71.04
73558;BME280;61829;53.286;10.434;2023-01-15T14:54:06;99142.41;;;5.81;70.86
73558;BME280;61829;53.286;10.434;2023-01-15T14:56:36;99137.50;;;5.84;72.04
73558;BME280;61829;53.286;10.434;2023-01-15T15:02:23;99148.81;;;5.87;70.32
73558;BME280;61829;53.286;10.434;2023-01-15T15:04:57;99124.13;;;5.84;70.77
73558;BME280;61829;53.286;10.434;2023-01-15T15:07:43;99154.16;;;5.87;70.43
73558;BME280;61829;53.286;10.434;2023-01-15T15:10:20;99161.38;;;5.86;70.89
73558;BME280;61829;53.286;10.434;2023-01-15T15:12:53;99165.47;;;5.89;70.08
73558;BME280;61829;53.286;10.434;2023-01-15T15:19:39;99169.16;;;5.88;70.08
73558;BME280;61829;53.286;10.434;2023-01-15T15:22:13;99161.38;;;5.86;70.14
73558;BME280;61829;53.286;10.434;2023-01-15T15:24:46;99170.19;;;5.87;70.76
73558;BME280;61829;53.286;10.434;2023-01-15T15:27:20;99164.84;;;5.87;70.52
73558;BME280;61829;53.286;10.434;2023-01-15T15:29:48;99171.84;;;5.88;71.00
73558;BME280;61829;53.286;10.434;2023-01-15T15:32:17;99183.19;;;5.90;70.38
73558;BME280;61829;53.286;10.434;2023-01-15T15:34:47;99175.97;;;5.90;69.92
73558;BME280;61829;53.286;10.434;2023-01-15T15:37:24;99175.34;;;5.88;70.01
73558;BME280;61829;53.286;10.434;2023-01-15T15:42:31;99179.88;;;5.88;69.47
73558;BME280;61829;53.286;10.434;2023-01-15T15:48:21;99181.31;;;5.90;70.04
73558;BME280;61829;53.286;10.434;2023-01-15T15:57:03;99186.31;;;5.93;70.86
73558;BME280;61829;53.286;10.434;2023-01-15T15:59:37;99184.81;;;5.91;70.92
73558;BME280;61829;53.286;10.434;2023-01-15T16:02:29;99200.84;;;5.91;71.72
73558;BME280;61829;53.286;10.434;2023-01-15T16:05:02;99202.53;;;5.92;71.83
73558;BME280;61829;53.286;10.434;2023-01-15T16:07:31;99207.03;;;5.91;73.09
73558;BME280;61829;53.286;10.434;2023-01-15T16:12:44;99200.44;;;5.87;72.38
73558;BME280;61829;53.286;10.434;2023-01-15T16:15:18;99209.47;;;5.86;72.99
73558;BME280;61829;53.286;10.434;2023-01-15T16:17:45;99220.16;;;5.86;73.34
73558;BME280;61829;53.286;10.434;2023-01-15T16:20:15;99212.75;;;5.88;73.77
73558;BME280;61829;53.286;10.434;2023-01-15T16:22:57;99216.22;;;5.82;73.84